sensor_id;sensor_type;location;lat;lon;timestamp;P1;durP1;ratioP1;P2;durP2;ratioP2
51020;SDS011;38907;45.562;8.856;2022-07-22T00:02:45;8.35;;;6.85;;
51020;SDS011;38907;45.562;8.856;2022-07-22T00:07:48;12.20;;;6.82;;
51020;SDS011;38907;45.562;8.856;2022-07-22T00:12:52;13.73;;;7.55;;
51020;SDS011;38907;45.562;8.856;2022-07-22T00:17:55;8.02;;;7.18;;
51020;SDS011;38907;45.562;8.856;2022-07-22T00:22:58;15.90;;;8.15;;
51020;SDS011;38907;45.562;8.856;2022-07-22T00:28:02;8.65;;;7.55;;
51020;SDS011;38907;45.562;8.856;2022-07-22T00:33:05;9.15;;;6.95;;
51020;SDS011;38907;45.562;8.856;2022-07-22T00:38:08;9.30;;;7.40;;
51020;SDS011;38907;45.562;8.856;2022-07-22T00:43:13;11.75;;;7.95;;
51020;SDS011;38907;45.562;8.856;2022-07-22T00:48:18;13.65;;;8.00;;
51020;SDS011;38907;45.562;8.856;2022-07-22T00:53:21;9.57;;;7.57;;
51020;SDS011;38907;45.562;8.856;2022-07-22T00:58:25;10.90;;;7.65;;
51020;SDS011;38907;45.562;8.856;2022-07-22T01:03:28;11.07;;;7.20;;
51020;SDS011;38907;45.562;8.856;2022-07-22T01:08:31;12.88;;;7.40;;
51020;SDS011;38907;45.562;8.856;2022-07-22T01:13:36;14.65;;;7.13;;
51020;SDS011;38907;45.562;8.856;2022-07-22T01:18:39;11.23;;;6.82;;
51020;SDS011;38907;45.562;8.856;2022-07-22T01:23:44;9.25;;;6.85;;
51020;SDS011;38907;45.562;8.856;2022-07-22T01:28:47;13.32;;;7.55;;
51020;SDS011;38907;45.562;8.856;2022-07-22T01:33:50;9.75;;;7.65;;
51020;SDS011;38907;45.562;8.856;2022-07-22T01:38:55;9.15;;;7.72;;
51020;SDS011;38907;45.562;8.856;2022-07-22T01:43:58;12.23;;;7.40;;
51020;SDS011;38907;45.562;8.856;2022-07-22T01:49:01;8.70;;;7.45;;
51020;SDS011;38907;45.562;8.856;2022-07-22T01:54:05;15.38;;;7.25;;
51020;SDS011;38907;45.562;8.856;2022-07-22T01:59:08;9.95;;;7.15;;
51020;SDS011;38907;45.562;8.856;2022-07-22T02:04:11;16.27;;;7.28;;
51020;SDS011;38907;45.562;8.856;2022-07-22T02:09:15;10.48;;;7.20;;
51020;SDS011;38907;45.562;8.856;2022-07-22T02:14:18;8.88;;;7.20;;
51020;SDS011;38907;45.562;8.856;2022-07-22T02:19:21;7.50;;;6.22;;
51020;SDS011;38907;45.562;8.856;2022-07-22T02:24:26;8.25;;;6.80;;
51020;SDS011;38907;45.562;8.856;2022-07-22T02:29:29;9.82;;;8.85;;
51020;SDS011;38907;45.562;8.856;2022-07-22T02:34:33;12.32;;;9.30;;
51020;SDS011;38907;45.562;8.856;2022-07-22T02:39:37;12.43;;;9.82;;
51020;SDS011;38907;45.562;8.856;2022-07-22T02:44:40;12.85;;;10.82;;
51020;SDS011;38907;45.562;8.856;2022-07-22T02:49:43;13.50;;;10.48;;
51020;SDS011;38907;45.562;8.856;2022-07-22T02:54:47;16.58;;;10.63;;
51020;SDS011;38907;45.562;8.856;2022-07-22T02:59:51;13.80;;;10.25;;
51020;SDS011;38907;45.562;8.856;2022-07-22T03:04:53;14.27;;;11.57;;
51020;SDS011;38907;45.562;8.856;2022-07-22T03:09:58;17.05;;;11.05;;
51020;SDS011;38907;45.562;8.856;2022-07-22T03:15:01;13.40;;;10.25;;
51020;SDS011;38907;45.562;8.856;2022-07-22T03:20:05;14.10;;;10.63;;
51020;SDS011;38907;45.562;8.856;2022-07-22T03:25:10;15.88;;;11.20;;
51020;SDS011;38907;45.562;8.856;2022-07-22T03:30:14;17.08;;;10.93;;
51020;SDS011;38907;45.562;8.856;2022-07-22T03:35:17;16.25;;;11.40;;
51020;SDS011;38907;45.562;8.856;2022-07-22T03:40:21;14.75;;;11.50;;
51020;SDS011;38907;45.562;8.856;2022-07-22T03:45:24;24.63;;;11.35;;
51020;SDS011;38907;45.562;8.856;2022-07-22T03:50:27;22.42;;;12.15;;
51020;SDS011;38907;45.562;8.856;2022-07-22T03:55:31;16.55;;;11.20;;
51020;SDS011;38907;45.562;8.856;2022-07-22T04:00:34;15.63;;;10.75;;
51020;SDS011;38907;45.562;8.856;2022-07-22T04:05:37;12.07;;;9.80;;
51020;SDS011;38907;45.562;8.856;2022-07-22T04:10:42;18.40;;;9.25;;
51020;SDS011;38907;45.562;8.856;2022-07-22T04:15:48;13.23;;;8.38;;
51020;SDS011;38907;45.562;8.856;2022-07-22T04:20:50;8.95;;;7.30;;
51020;SDS011;38907;45.562;8.856;2022-07-22T04:25:54;10.10;;;6.55;;
51020;SDS011;38907;45.562;8.856;2022-07-22T04:30:57;13.52;;;9.02;;
51020;SDS011;38907;45.562;8.856;2022-07-22T04:36:00;22.08;;;9.95;;
51020;SDS011;38907;45.562;8.856;2022-07-22T04:41:04;18.08;;;10.70;;
51020;SDS011;38907;45.562;8.856;2022-07-22T04:46:07;24.33;;;10.70;;
51020;SDS011;38907;45.562;8.856;2022-07-22T04:51:10;20.52;;;10.98;;
51020;SDS011;38907;45.562;8.856;2022-07-22T04:56:14;15.43;;;11.63;;
51020;SDS011;38907;45.562;8.856;2022-07-22T05:01:17;13.48;;;9.90;;
51020;SDS011;38907;45.562;8.856;2022-07-22T05:06:20;14.15;;;10.60;;
51020;SDS011;38907;45.562;8.856;2022-07-22T05:11:24;24.65;;;11.70;;
51020;SDS011;38907;45.562;8.856;2022-07-22T05:16:27;19.23;;;11.02;;
51020;SDS011;38907;45.562;8.856;2022-07-22T05:21:30;13.48;;;9.95;;
51020;SDS011;38907;45.562;8.856;2022-07-22T05:26:34;19.48;;;10.35;;
51020;SDS011;38907;45.562;8.856;2022-07-22T05:31:38;15.40;;;9.77;;
51020;SDS011;38907;45.562;8.856;2022-07-22T05:36:41;15.05;;;9.57;;
51020;SDS011;38907;45.562;8.856;2022-07-22T05:41:45;12.38;;;9.93;;
51020;SDS011;38907;45.562;8.856;2022-07-22T05:46:48;20.00;;;10.65;;
51020;SDS011;38907;45.562;8.856;2022-07-22T05:51:50;13.60;;;10.25;;
51020;SDS011;38907;45.562;8.856;2022-07-22T05:56:55;15.85;;;10.55;;
51020;SDS011;38907;45.562;8.856;2022-07-22T06:01:58;18.13;;;10.63;;
51020;SDS011;38907;45.562;8.856;2022-07-22T06:07:01;24.42;;;10.57;;
51020;SDS011;38907;45.562;8.856;2022-07-22T06:12:08;18.05;;;9.48;;
51020;SDS011;38907;45.562;8.856;2022-07-22T06:17:11;20.25;;;8.95;;
51020;SDS011;38907;45.562;8.856;2022-07-22T06:22:14;16.70;;;8.80;;
51020;SDS011;38907;45.562;8.856;2022-07-22T06:27:19;18.48;;;9.25;;
51020;SDS011;38907;45.562;8.856;2022-07-22T06:32:22;19.52;;;8.80;;
51020;SDS011;38907;45.562;8.856;2022-07-22T06:37:25;22.75;;;8.07;;
51020;SDS011;38907;45.562;8.856;2022-07-22T06:42:29;19.13;;;8.18;;
51020;SDS011;38907;45.562;8.856;2022-07-22T06:47:32;15.73;;;7.15;;
51020;SDS011;38907;45.562;8.856;2022-07-22T06:52:37;21.80;;;8.30;;
51020;SDS011;38907;45.562;8.856;2022-07-22T06:57:42;10.00;;;7.40;;
51020;SDS011;38907;45.562;8.856;2022-07-22T07:02:45;20.67;;;7.22;;
51020;SDS011;38907;45.562;8.856;2022-07-22T07:07:48;14.52;;;6.38;;
51020;SDS011;38907;45.562;8.856;2022-07-22T07:12:56;11.55;;;6.88;;
51020;SDS011;38907;45.562;8.856;2022-07-22T07:17:59;13.07;;;6.47;;
51020;SDS011;38907;45.562;8.856;2022-07-22T07:23:02;14.00;;;6.05;;
51020;SDS011;38907;45.562;8.856;2022-07-22T07:28:07;13.20;;;5.88;;
51020;SDS011;38907;45.562;8.856;2022-07-22T07:33:10;18.90;;;6.47;;
51020;SDS011;38907;45.562;8.856;2022-07-22T07:38:13;14.35;;;7.15;;
51020;SDS011;38907;45.562;8.856;2022-07-22T07:43:18;13.27;;;6.45;;
51020;SDS011;38907;45.562;8.856;2022-07-22T07:48:21;9.75;;;6.57;;
51020;SDS011;38907;45.562;8.856;2022-07-22T07:53:24;9.90;;;6.35;;
51020;SDS011;38907;45.562;8.856;2022-07-22T07:58:29;8.45;;;5.80;;
51020;SDS011;38907;45.562;8.856;2022-07-22T08:03:32;16.15;;;6.22;;
51020;SDS011;38907;45.562;8.856;2022-07-22T08:08:35;17.38;;;6.55;;
51020;SDS011;38907;45.562;8.856;2022-07-22T08:13:39;7.47;;;5.60;;
51020;SDS011;38907;45.562;8.856;2022-07-22T08:18:42;16.80;;;6.20;;
51020;SDS011;38907;45.562;8.856;2022-07-22T08:23:45;12.60;;;5.93;;
51020;SDS011;38907;45.562;8.856;2022-07-22T08:28:50;13.55;;;6.53;;
51020;SDS011;38907;45.562;8.856;2022-07-22T08:33:54;10.10;;;5.40;;
51020;SDS011;38907;45.562;8.856;2022-07-22T08:38:57;17.70;;;5.70;;
51020;SDS011;38907;45.562;8.856;2022-07-22T08:44:01;20.17;;;6.35;;
51020;SDS011;38907;45.562;8.856;2022-07-22T08:49:06;16.10;;;6.18;;
51020;SDS011;38907;45.562;8.856;2022-07-22T08:54:09;10.80;;;5.68;;
51020;SDS011;38907;45.562;8.856;2022-07-22T08:59:13;8.60;;;5.43;;
51020;SDS011;38907;45.562;8.856;2022-07-22T09:04:16;8.68;;;4.68;;
51020;SDS011;38907;45.562;8.856;2022-07-22T09:09:28;10.55;;;4.68;;
51020;SDS011;38907;45.562;8.856;2022-07-22T09:14:47;16.20;;;5.10;;
51020;SDS011;38907;45.562;8.856;2022-07-22T09:19:50;10.13;;;4.40;;
51020;SDS011;38907;45.562;8.856;2022-07-22T09:24:54;10.85;;;4.55;;
51020;SDS011;38907;45.562;8.856;2022-07-22T09:29:58;15.93;;;5.28;;
51020;SDS011;38907;45.562;8.856;2022-07-22T09:35:02;6.35;;;4.22;;
51020;SDS011;38907;45.562;8.856;2022-07-22T09:40:12;5.90;;;4.10;;
51020;SDS011;38907;45.562;8.856;2022-07-22T09:45:17;11.70;;;4.03;;
51020;SDS011;38907;45.562;8.856;2022-07-22T09:50:21;7.47;;;3.88;;
51020;SDS011;38907;45.562;8.856;2022-07-22T09:55:27;10.27;;;3.90;;
51020;SDS011;38907;45.562;8.856;2022-07-22T10:00:32;5.22;;;3.72;;
51020;SDS011;38907;45.562;8.856;2022-07-22T10:05:36;4.93;;;3.42;;
51020;SDS011;38907;45.562;8.856;2022-07-22T10:10:39;11.40;;;3.60;;
51020;SDS011;38907;45.562;8.856;2022-07-22T10:15:44;10.20;;;3.92;;
51020;SDS011;38907;45.562;8.856;2022-07-22T10:20:48;5.85;;;3.80;;
51020;SDS011;38907;45.562;8.856;2022-07-22T10:26:02;9.02;;;3.70;;
51020;SDS011;38907;45.562;8.856;2022-07-22T10:31:20;8.13;;;3.58;;
51020;SDS011;38907;45.562;8.856;2022-07-22T10:36:31;8.80;;;4.40;;
51020;SDS011;38907;45.562;8.856;2022-07-22T10:41:36;14.18;;;4.00;;
51020;SDS011;38907;45.562;8.856;2022-07-22T10:52:12;12.07;;;3.88;;
51020;SDS011;38907;45.562;8.856;2022-07-22T10:57:29;10.65;;;3.53;;
51020;SDS011;38907;45.562;8.856;2022-07-22T11:02:32;6.05;;;3.85;;
51020;SDS011;38907;45.562;8.856;2022-07-22T11:07:41;8.73;;;4.00;;
51020;SDS011;38907;45.562;8.856;2022-07-22T11:12:45;13.35;;;4.57;;
51020;SDS011;38907;45.562;8.856;2022-07-22T11:17:49;9.02;;;3.45;;
51020;SDS011;38907;45.562;8.856;2022-07-22T11:22:53;7.53;;;3.47;;
51020;SDS011;38907;45.562;8.856;2022-07-22T11:27:57;9.77;;;3.30;;
51020;SDS011;38907;45.562;8.856;2022-07-22T11:33:01;6.50;;;3.22;;
51020;SDS011;38907;45.562;8.856;2022-07-22T11:38:06;5.93;;;3.40;;
51020;SDS011;38907;45.562;8.856;2022-07-22T11:43:09;6.10;;;3.28;;
51020;SDS011;38907;45.562;8.856;2022-07-22T11:48:12;9.10;;;4.53;;
51020;SDS011;38907;45.562;8.856;2022-07-22T11:53:16;5.03;;;3.55;;
51020;SDS011;38907;45.562;8.856;2022-07-22T11:58:29;6.93;;;3.75;;
51020;SDS011;38907;45.562;8.856;2022-07-22T12:03:39;12.00;;;3.90;;
51020;SDS011;38907;45.562;8.856;2022-07-22T12:08:47;13.82;;;4.03;;
51020;SDS011;38907;45.562;8.856;2022-07-22T12:13:52;5.63;;;3.58;;
51020;SDS011;38907;45.562;8.856;2022-07-22T12:18:56;10.88;;;3.90;;
51020;SDS011;38907;45.562;8.856;2022-07-22T12:24:02;7.38;;;4.10;;
51020;SDS011;38907;45.562;8.856;2022-07-22T12:29:16;6.97;;;3.90;;
51020;SDS011;38907;45.562;8.856;2022-07-22T12:34:35;6.70;;;4.63;;
51020;SDS011;38907;45.562;8.856;2022-07-22T12:39:41;11.38;;;4.20;;
51020;SDS011;38907;45.562;8.856;2022-07-22T12:44:59;5.95;;;4.20;;
51020;SDS011;38907;45.562;8.856;2022-07-22T12:50:14;5.18;;;3.83;;
51020;SDS011;38907;45.562;8.856;2022-07-22T12:55:26;14.32;;;4.05;;
51020;SDS011;38907;45.562;8.856;2022-07-22T13:00:30;7.63;;;4.03;;
51020;SDS011;38907;45.562;8.856;2022-07-22T13:05:35;9.93;;;4.22;;
51020;SDS011;38907;45.562;8.856;2022-07-22T13:10:39;9.52;;;4.88;;
51020;SDS011;38907;45.562;8.856;2022-07-22T13:15:42;4.90;;;4.25;;
51020;SDS011;38907;45.562;8.856;2022-07-22T13:20:46;7.05;;;4.20;;
51020;SDS011;38907;45.562;8.856;2022-07-22T13:25:50;9.57;;;4.15;;
51020;SDS011;38907;45.562;8.856;2022-07-22T13:30:53;6.65;;;4.15;;
51020;SDS011;38907;45.562;8.856;2022-07-22T13:35:55;9.75;;;5.10;;
51020;SDS011;38907;45.562;8.856;2022-07-22T13:41:00;7.35;;;5.18;;
51020;SDS011;38907;45.562;8.856;2022-07-22T13:46:03;6.30;;;4.57;;
51020;SDS011;38907;45.562;8.856;2022-07-22T13:51:07;7.18;;;4.65;;
51020;SDS011;38907;45.562;8.856;2022-07-22T13:56:11;5.03;;;4.50;;
51020;SDS011;38907;45.562;8.856;2022-07-22T14:01:15;8.45;;;5.03;;
51020;SDS011;38907;45.562;8.856;2022-07-22T14:06:18;10.30;;;4.78;;
51020;SDS011;38907;45.562;8.856;2022-07-22T14:11:23;8.43;;;4.38;;
51020;SDS011;38907;45.562;8.856;2022-07-22T14:16:26;4.72;;;4.22;;
51020;SDS011;38907;45.562;8.856;2022-07-22T14:21:35;9.10;;;4.28;;
51020;SDS011;38907;45.562;8.856;2022-07-22T14:26:41;7.30;;;5.07;;
51020;SDS011;38907;45.562;8.856;2022-07-22T14:31:44;9.93;;;4.75;;
51020;SDS011;38907;45.562;8.856;2022-07-22T14:36:47;7.28;;;4.80;;
51020;SDS011;38907;45.562;8.856;2022-07-22T14:41:52;6.57;;;4.22;;
51020;SDS011;38907;45.562;8.856;2022-07-22T14:46:55;6.03;;;4.60;;
51020;SDS011;38907;45.562;8.856;2022-07-22T14:51:58;9.05;;;4.50;;
51020;SDS011;38907;45.562;8.856;2022-07-22T14:57:03;8.32;;;4.70;;
51020;SDS011;38907;45.562;8.856;2022-07-22T15:02:06;11.30;;;4.80;;
51020;SDS011;38907;45.562;8.856;2022-07-22T15:07:09;6.13;;;4.80;;
51020;SDS011;38907;45.562;8.856;2022-07-22T15:12:14;7.05;;;4.45;;
51020;SDS011;38907;45.562;8.856;2022-07-22T15:17:17;5.90;;;4.40;;
51020;SDS011;38907;45.562;8.856;2022-07-22T15:22:20;7.80;;;4.55;;
51020;SDS011;38907;45.562;8.856;2022-07-22T15:27:26;5.60;;;4.78;;
51020;SDS011;38907;45.562;8.856;2022-07-22T15:32:29;7.30;;;4.55;;
51020;SDS011;38907;45.562;8.856;2022-07-22T15:37:32;8.95;;;4.45;;
51020;SDS011;38907;45.562;8.856;2022-07-22T15:42:39;8.00;;;4.03;;
51020;SDS011;38907;45.562;8.856;2022-07-22T15:47:42;5.38;;;4.28;;
51020;SDS011;38907;45.562;8.856;2022-07-22T15:52:45;7.22;;;4.82;;
51020;SDS011;38907;45.562;8.856;2022-07-22T15:57:50;5.72;;;4.18;;
51020;SDS011;38907;45.562;8.856;2022-07-22T16:03:10;12.23;;;5.00;;
51020;SDS011;38907;45.562;8.856;2022-07-22T16:08:14;6.47;;;4.30;;
51020;SDS011;38907;45.562;8.856;2022-07-22T16:13:18;9.25;;;4.55;;
51020;SDS011;38907;45.562;8.856;2022-07-22T16:18:22;6.97;;;4.22;;
51020;SDS011;38907;45.562;8.856;2022-07-22T16:23:26;7.57;;;4.15;;
51020;SDS011;38907;45.562;8.856;2022-07-22T16:28:31;9.68;;;4.07;;
51020;SDS011;38907;45.562;8.856;2022-07-22T16:33:34;5.70;;;3.92;;
51020;SDS011;38907;45.562;8.856;2022-07-22T16:38:38;9.02;;;4.15;;
51020;SDS011;38907;45.562;8.856;2022-07-22T16:43:42;6.18;;;3.75;;
51020;SDS011;38907;45.562;8.856;2022-07-22T16:48:45;9.32;;;3.97;;
51020;SDS011;38907;45.562;8.856;2022-07-22T16:53:49;10.77;;;3.88;;
51020;SDS011;38907;45.562;8.856;2022-07-22T16:58:53;5.45;;;4.25;;
51020;SDS011;38907;45.562;8.856;2022-07-22T17:03:56;14.07;;;4.20;;
51020;SDS011;38907;45.562;8.856;2022-07-22T17:08:59;15.75;;;4.63;;
51020;SDS011;38907;45.562;8.856;2022-07-22T17:14:04;7.35;;;4.28;;
51020;SDS011;38907;45.562;8.856;2022-07-22T17:19:07;8.68;;;3.80;;
51020;SDS011;38907;45.562;8.856;2022-07-22T17:24:10;4.72;;;3.90;;
51020;SDS011;38907;45.562;8.856;2022-07-22T17:29:15;10.80;;;4.07;;
51020;SDS011;38907;45.562;8.856;2022-07-22T17:34:18;4.90;;;3.65;;
51020;SDS011;38907;45.562;8.856;2022-07-22T17:39:22;11.70;;;3.80;;
51020;SDS011;38907;45.562;8.856;2022-07-22T17:44:27;16.73;;;4.55;;
51020;SDS011;38907;45.562;8.856;2022-07-22T17:49:30;15.00;;;4.13;;
51020;SDS011;38907;45.562;8.856;2022-07-22T17:54:33;17.48;;;5.20;;
51020;SDS011;38907;45.562;8.856;2022-07-22T17:59:37;12.45;;;4.43;;
51020;SDS011;38907;45.562;8.856;2022-07-22T18:04:40;19.58;;;4.20;;
51020;SDS011;38907;45.562;8.856;2022-07-22T18:09:43;23.40;;;4.38;;
51020;SDS011;38907;45.562;8.856;2022-07-22T18:14:47;13.30;;;4.13;;
51020;SDS011;38907;45.562;8.856;2022-07-22T18:19:50;13.32;;;4.47;;
51020;SDS011;38907;45.562;8.856;2022-07-22T18:24:54;14.65;;;4.20;;
51020;SDS011;38907;45.562;8.856;2022-07-22T18:29:59;38.00;;;6.80;;
51020;SDS011;38907;45.562;8.856;2022-07-22T18:35:02;19.85;;;4.93;;
51020;SDS011;38907;45.562;8.856;2022-07-22T18:40:05;6.38;;;4.20;;
51020;SDS011;38907;45.562;8.856;2022-07-22T18:45:10;13.77;;;4.80;;
51020;SDS011;38907;45.562;8.856;2022-07-22T18:50:13;15.52;;;4.90;;
51020;SDS011;38907;45.562;8.856;2022-07-22T18:55:16;15.50;;;5.53;;
51020;SDS011;38907;45.562;8.856;2022-07-22T19:00:21;16.90;;;4.38;;
51020;SDS011;38907;45.562;8.856;2022-07-22T19:05:24;9.85;;;5.13;;
51020;SDS011;38907;45.562;8.856;2022-07-22T19:10:27;13.88;;;4.82;;
51020;SDS011;38907;45.562;8.856;2022-07-22T19:15:31;13.70;;;5.03;;
51020;SDS011;38907;45.562;8.856;2022-07-22T19:20:34;7.90;;;4.45;;
51020;SDS011;38907;45.562;8.856;2022-07-22T19:25:37;8.10;;;4.82;;
51020;SDS011;38907;45.562;8.856;2022-07-22T19:30:41;12.27;;;4.93;;
51020;SDS011;38907;45.562;8.856;2022-07-22T19:35:44;13.52;;;5.13;;
51020;SDS011;38907;45.562;8.856;2022-07-22T19:40:47;22.30;;;5.07;;
51020;SDS011;38907;45.562;8.856;2022-07-22T19:45:51;13.60;;;4.88;;
51020;SDS011;38907;45.562;8.856;2022-07-22T19:50:54;15.95;;;4.65;;
51020;SDS011;38907;45.562;8.856;2022-07-22T19:55:58;12.25;;;5.13;;
51020;SDS011;38907;45.562;8.856;2022-07-22T20:01:02;12.27;;;5.53;;
51020;SDS011;38907;45.562;8.856;2022-07-22T20:06:05;18.60;;;5.22;;
51020;SDS011;38907;45.562;8.856;2022-07-22T20:11:08;12.75;;;5.15;;
51020;SDS011;38907;45.562;8.856;2022-07-22T20:16:14;9.20;;;4.82;;
51020;SDS011;38907;45.562;8.856;2022-07-22T20:21:17;10.23;;;4.47;;
51020;SDS011;38907;45.562;8.856;2022-07-22T20:26:22;13.15;;;4.93;;
51020;SDS011;38907;45.562;8.856;2022-07-22T20:31:28;17.35;;;5.45;;
51020;SDS011;38907;45.562;8.856;2022-07-22T20:36:30;15.38;;;5.65;;
51020;SDS011;38907;45.562;8.856;2022-07-22T20:41:33;12.02;;;5.15;;
51020;SDS011;38907;45.562;8.856;2022-07-22T20:46:37;6.90;;;4.93;;
51020;SDS011;38907;45.562;8.856;2022-07-22T20:51:40;7.30;;;5.55;;
51020;SDS011;38907;45.562;8.856;2022-07-22T20:56:43;7.45;;;5.53;;
51020;SDS011;38907;45.562;8.856;2022-07-22T21:01:48;10.25;;;5.80;;
51020;SDS011;38907;45.562;8.856;2022-07-22T21:06:51;6.45;;;5.50;;
51020;SDS011;38907;45.562;8.856;2022-07-22T21:11:54;11.55;;;5.95;;
51020;SDS011;38907;45.562;8.856;2022-07-22T21:16:58;11.27;;;7.18;;
51020;SDS011;38907;45.562;8.856;2022-07-22T21:22:01;10.10;;;6.80;;
51020;SDS011;38907;45.562;8.856;2022-07-22T21:27:07;9.30;;;6.55;;
51020;SDS011;38907;45.562;8.856;2022-07-22T21:32:12;9.73;;;5.75;;
51020;SDS011;38907;45.562;8.856;2022-07-22T21:37:15;17.13;;;6.18;;
51020;SDS011;38907;45.562;8.856;2022-07-22T21:42:18;18.23;;;6.25;;
51020;SDS011;38907;45.562;8.856;2022-07-22T21:47:23;11.63;;;6.38;;
51020;SDS011;38907;45.562;8.856;2022-07-22T21:52:26;7.93;;;6.13;;
51020;SDS011;38907;45.562;8.856;2022-07-22T21:57:29;12.25;;;6.78;;
51020;SDS011;38907;45.562;8.856;2022-07-22T22:02:33;7.40;;;5.95;;
51020;SDS011;38907;45.562;8.856;2022-07-22T22:07:36;8.20;;;6.47;;
51020;SDS011;38907;45.562;8.856;2022-07-22T22:12:39;6.70;;;5.90;;
51020;SDS011;38907;45.562;8.856;2022-07-22T22:17:43;12.32;;;6.13;;
51020;SDS011;38907;45.562;8.856;2022-07-22T22:22:46;8.05;;;5.80;;
51020;SDS011;38907;45.562;8.856;2022-07-22T22:27:49;10.82;;;6.18;;
51020;SDS011;38907;45.562;8.856;2022-07-22T22:32:53;14.32;;;6.13;;
51020;SDS011;38907;45.562;8.856;2022-07-22T22:37:56;7.00;;;6.15;;
51020;SDS011;38907;45.562;8.856;2022-07-22T22:42:59;14.25;;;6.97;;
51020;SDS011;38907;45.562;8.856;2022-07-22T22:48:04;8.77;;;6.25;;
51020;SDS011;38907;45.562;8.856;2022-07-22T22:53:07;9.23;;;6.25;;
51020;SDS011;38907;45.562;8.856;2022-07-22T22:58:10;9.52;;;6.38;;
51020;SDS011;38907;45.562;8.856;2022-07-22T23:03:14;11.65;;;6.90;;
51020;SDS011;38907;45.562;8.856;2022-07-22T23:08:17;9.90;;;6.63;;
51020;SDS011;38907;45.562;8.856;2022-07-22T23:13:20;11.80;;;6.68;;
51020;SDS011;38907;45.562;8.856;2022-07-22T23:18:24;7.30;;;6.07;;
51020;SDS011;38907;45.562;8.856;2022-07-22T23:23:26;14.27;;;6.65;;
51020;SDS011;38907;45.562;8.856;2022-07-22T23:28:31;10.48;;;6.53;;
51020;SDS011;38907;45.562;8.856;2022-07-22T23:33:35;12.18;;;6.53;;
51020;SDS011;38907;45.562;8.856;2022-07-22T23:38:38;7.18;;;6.47;;
51020;SDS011;38907;45.562;8.856;2022-07-22T23:43:41;11.35;;;6.13;;
51020;SDS011;38907;45.562;8.856;2022-07-22T23:48:45;7.05;;;6.03;;
51020;SDS011;38907;45.562;8.856;2022-07-22T23:53:48;8.48;;;6.30;;
51020;SDS011;38907;45.562;8.856;2022-07-22T23:58:52;13.25;;;6.18;;
